Time;durP1;ratioP1;P1;durP2;ratioP2;P2;SDS_P1;SDS_P2;PMS_P1;PMS_P2;Temp;Humidity;BMP_temperature;BMP_pressure;BME280_temperature;BME280_humidity;BME280_pressure;Samples;Min_cycle;Max_cycle;Signal;HPM_P1;HPM_P2
2022/12/28 00:01:40;;;;;;;0.20;0.10;;;10.10;99.90;;;;;;20880702;28;20426;-73
2022/12/28 00:11:45;;;;;;;0.20;0.10;;;9.50;99.90;;;;;;20896645;28;20411;-74
2022/12/28 00:21:49;;;;;;;0.20;0.00;;;10.20;99.90;;;;;;20896732;28;20756;-73
2022/12/28 00:31:54;;;;;;;0.20;0.10;;;9.60;99.90;;;;;;20896629;28;20448;-73
2022/12/28 00:41:58;;;;;;;0.20;0.00;;;9.60;99.90;;;;;;20896387;28;20569;-73
2022/12/28 00:52:04;;;;;;;0.20;0.10;;;9.80;99.90;;;;;;20877818;28;20453;-73
2022/12/28 01:02:07;;;;;;;0.20;0.00;;;9.30;99.90;;;;;;20895331;28;20407;-72
2022/12/28 01:12:13;;;;;;;0.20;0.10;;;9.30;99.90;;;;;;20894890;28;20422;-73
2022/12/28 01:22:16;;;;;;;0.20;0.00;;;9.30;99.90;;;;;;20964965;28;20413;-72
2022/12/28 01:32:21;;;;;;;0.20;0.10;;;9.00;99.90;;;;;;20974820;28;20726;-73
2022/12/28 01:42:25;;;;;;;0.20;0.00;;;9.40;99.90;;;;;;20991646;28;20398;-73
2022/12/28 01:52:36;;;;;;;0.20;0.10;;;9.40;99.90;;;;;;20991532;28;20865;-74
2022/12/28 02:02:43;;;;;;;0.20;0.00;;;9.60;99.90;;;;;;20972973;28;20399;-74
2022/12/28 02:12:48;;;;;;;0.20;0.10;;;9.40;99.90;;;;;;20971854;28;20410;-73
2022/12/28 02:23:16;;;;;;;0.20;0.00;;;9.10;99.90;;;;;;20971720;28;20414;-74
2022/12/28 02:33:27;;;;;;;0.20;0.10;;;9.00;99.90;;;;;;20987365;28;20424;-73
2022/12/28 02:43:32;;;;;;;0.20;0.00;;;8.90;99.90;;;;;;20987519;28;20826;-74
2022/12/28 02:56:06;;;;;;;0.20;0.00;;;8.90;99.90;;;;;;20986999;28;20406;-73
2022/12/28 03:04:58;;;;;;;0.20;0.10;;;8.70;99.90;;;;;;20967831;28;20861;-72
2022/12/28 03:15:09;;;;;;;0.20;0.10;;;8.90;99.90;;;;;;20966778;28;20953;-74
2022/12/28 03:35:44;;;;;;;0.20;0.10;;;9.00;99.90;;;;;;20982831;28;20445;-74
2022/12/28 03:45:54;;;;;;;0.20;0.10;;;9.30;99.90;;;;;;20963756;28;20394;-74
2022/12/28 03:56:09;;;;;;;0.20;0.07;;;9.60;99.90;;;;;;20963593;28;20490;-73
2022/12/28 04:06:15;;;;;;;0.20;0.10;;;9.20;99.90;;;;;;20963202;28;20406;-73
2022/12/28 04:16:21;;;;;;;0.20;0.07;;;8.90;99.90;;;;;;20979010;28;20402;-73
2022/12/28 04:26:25;;;;;;;0.20;0.10;;;9.10;99.90;;;;;;21034171;28;20410;-73
2022/12/28 04:36:30;;;;;;;0.20;0.00;;;9.20;99.90;;;;;;21044034;28;20735;-73
2022/12/28 04:46:34;;;;;;;0.20;0.10;;;8.90;99.90;;;;;;20963055;28;20921;-72
2022/12/28 04:56:39;;;;;;;0.20;0.10;;;9.00;99.90;;;;;;20897979;28;20430;-73
2022/12/28 10:13:12;;;;;;;0.20;0.08;;;15.40;99.90;;;;;;21052312;28;20413;-72
2022/12/28 10:23:37;;;;;;;0.20;0.10;;;15.40;99.90;;;;;;20818956;28;20495;-71
2022/12/28 10:34:11;;;;;;;0.20;0.00;;;15.50;99.90;;;;;;20820571;28;20413;-71
2022/12/28 10:44:21;;;;;;;0.20;0.10;;;15.80;99.90;;;;;;20820254;28;20552;-71
2022/12/28 10:54:47;;;;;;;0.20;0.03;;;16.50;99.90;;;;;;20817651;28;20417;-71
2022/12/28 11:05:19;;;;;;;0.20;0.10;;;17.10;99.90;;;;;;20657627;28;23594;-67
2022/12/28 11:15:27;;;;;;;0.20;0.00;;;17.70;99.90;;;;;;20736920;28;71839;-71
2022/12/28 11:25:33;;;;;;;0.20;0.00;;;17.90;99.90;;;;;;20980200;28;20414;-71
2022/12/28 11:35:40;;;;;;;0.20;0.00;;;17.80;99.90;;;;;;20962097;28;20421;-71
2022/12/28 11:45:54;;;;;;;0.20;0.00;;;17.80;99.90;;;;;;20962185;28;20490;-72
2022/12/28 11:56:07;;;;;;;0.20;0.03;;;18.10;99.90;;;;;;20979603;28;20896;-73
2022/12/28 12:06:10;;;;;;;0.20;0.00;;;19.10;99.90;;;;;;20961200;28;20477;-69
2022/12/28 12:16:24;;;;;;;0.20;0.00;;;19.30;99.90;;;;;;20977547;28;20409;-69
2022/12/28 12:26:36;;;;;;;0.20;0.00;;;19.80;99.90;;;;;;20958745;28;20444;-71
2022/12/28 12:37:31;;;;;;;0.20;0.10;;;20.30;99.90;;;;;;20957259;28;20683;-73
2022/12/28 12:48:07;;;;;;;0.20;0.00;;;19.50;99.90;;;;;;20957909;28;20406;-71
2022/12/28 12:58:21;;;;;;;0.20;0.00;;;19.70;99.90;;;;;;20956723;28;20421;-73
2022/12/28 13:08:32;;;;;;;0.20;0.00;;;19.60;99.90;;;;;;20943369;28;20398;-71
2022/12/28 13:18:37;;;;;;;0.20;0.00;;;19.00;99.90;;;;;;20944605;28;20422;-74
2022/12/28 13:28:53;;;;;;;0.20;0.10;;;19.00;99.90;;;;;;20974575;28;20531;-72
2022/12/28 13:39:18;;;;;;;0.20;0.00;;;18.40;99.90;;;;;;20972752;28;20406;-72
2022/12/28 13:49:23;;;;;;;0.20;0.00;;;18.00;99.90;;;;;;20972067;28;20409;-73
2022/12/28 13:59:28;;;;;;;0.20;0.10;;;18.20;99.90;;;;;;20989344;28;20398;-72
2022/12/28 14:09:32;;;;;;;0.20;0.00;;;18.50;99.90;;;;;;20970388;28;20463;-71
2022/12/28 14:19:38;;;;;;;0.20;0.00;;;19.20;99.90;;;;;;20970255;28;20397;-74
2022/12/28 14:29:42;;;;;;;0.20;0.00;;;20.10;99.90;;;;;;20985464;28;20867;-72
2022/12/28 14:39:48;;;;;;;0.20;0.00;;;20.40;99.90;;;;;;20985763;28;20934;-71
2022/12/28 14:49:58;;;;;;;0.20;0.00;;;20.00;99.90;;;;;;20968103;28;20406;-73
2022/12/28 15:00:07;;;;;;;0.20;0.00;;;17.90;99.90;;;;;;20967288;28;20456;-72
2022/12/28 15:10:10;;;;;;;0.20;0.00;;;17.50;99.90;;;;;;20984212;28;20414;-72
2022/12/28 15:20:16;;;;;;;0.20;0.10;;;18.10;99.90;;;;;;20983035;28;20489;-71
2022/12/28 15:30:21;;;;;;;0.20;0.10;;;18.50;99.90;;;;;;20964856;28;20406;-72
2022/12/28 15:40:33;;;;;;;0.20;0.00;;;19.10;99.90;;;;;;20980439;28;20395;-74
2022/12/28 15:50:36;;;;;;;0.20;0.00;;;18.90;99.90;;;;;;20962095;28;20406;-73
2022/12/28 16:00:41;;;;;;;0.20;0.10;;;18.10;99.90;;;;;;20980272;28;20489;-76
2022/12/28 16:10:50;;;;;;;0.20;0.10;;;16.90;99.90;;;;;;20979330;28;20462;-74
2022/12/28 16:21:00;;;;;;;0.20;0.00;;;16.30;99.90;;;;;;20977821;28;20484;-74
2022/12/28 16:31:07;;;;;;;0.20;0.10;;;15.80;99.90;;;;;;20976806;28;20899;-74
2022/12/28 16:41:12;;;;;;;0.20;0.00;;;15.50;99.90;;;;;;20976962;28;20461;-70
2022/12/28 16:51:15;;;;;;;0.20;0.08;;;14.90;99.90;;;;;;20958349;28;20412;-77
2022/12/28 17:01:21;;;;;;;0.20;0.00;;;13.80;99.90;;;;;;20957310;28;20394;-73
2022/12/28 17:11:25;;;;;;;0.20;0.10;;;13.30;99.90;;;;;;20970378;28;20497;-78
2022/12/28 17:21:31;;;;;;;0.20;0.10;;;13.10;99.90;;;;;;20975713;28;20441;-78
2022/12/28 17:31:35;;;;;;;0.20;0.10;;;12.90;99.90;;;;;;20937927;28;20442;-81
2022/12/28 17:41:40;;;;;;;0.20;0.10;;;12.40;99.90;;;;;;20936757;28;20394;-80
2022/12/28 17:51:45;;;;;;;0.20;0.10;;;12.20;99.90;;;;;;20970750;28;20406;-82
2022/12/28 18:01:50;;;;;;;0.20;0.10;;;12.20;99.90;;;;;;20952835;28;20893;-79
2022/12/28 18:11:54;;;;;;;0.20;0.10;;;12.00;99.90;;;;;;20967491;28;20448;-83
2022/12/28 18:21:59;;;;;;;0.20;0.00;;;11.90;99.90;;;;;;20986323;28;20402;-81
2022/12/28 18:32:04;;;;;;;0.20;0.10;;;11.60;99.90;;;;;;20966386;28;20966;-81
2022/12/28 18:42:09;;;;;;;0.20;0.10;;;11.20;99.90;;;;;;20983779;28;20406;-80
2022/12/28 18:52:13;;;;;;;0.20;0.10;;;11.10;99.90;;;;;;20981997;28;20406;-82
2022/12/28 19:02:18;;;;;;;0.20;0.10;;;11.10;99.90;;;;;;20964913;28;20403;-74
2022/12/28 19:12:22;;;;;;;0.20;0.03;;;10.90;99.90;;;;;;20980473;28;20432;-83
2022/12/28 19:22:28;;;;;;;0.20;0.03;;;10.80;99.90;;;;;;20959565;28;20402;-74
2022/12/28 19:32:32;;;;;;;0.20;0.10;;;10.60;99.90;;;;;;20979383;28;20427;-82
2022/12/28 19:42:38;;;;;;;0.20;0.10;;;10.40;99.90;;;;;;20960559;28;20406;-82
2022/12/28 19:52:41;;;;;;;0.20;0.10;;;10.50;99.90;;;;;;20964038;28;20710;-83
2022/12/28 20:02:47;;;;;;;0.20;0.00;;;10.30;99.90;;;;;;20977744;28;20406;-78
2022/12/28 20:12:50;;;;;;;5.20;4.80;;;10.50;99.90;;;;;;20958378;28;20808;-72
2022/12/28 20:22:56;;;;;;;0.20;0.10;;;10.50;99.90;;;;;;20874636;28;20411;-79
2022/12/28 20:33:00;;;;;;;0.20;0.10;;;10.30;99.90;;;;;;20874891;28;20430;-82
2022/12/28 20:43:23;;;;;;;0.20;0.10;;;10.30;99.90;;;;;;20877977;28;20459;-81
2022/12/28 20:53:28;;;;;;;0.20;0.10;;;10.40;99.90;;;;;;20892167;28;20470;-81
2022/12/28 21:03:33;;;;;;;0.30;0.30;;;9.90;99.90;;;;;;20879352;28;20446;-81
2022/12/28 21:13:37;;;;;;;0.20;0.10;;;10.60;99.90;;;;;;20881246;28;20429;-82
2022/12/28 21:23:48;;;;;;;0.20;0.10;;;10.10;99.90;;;;;;20957787;28;20723;-82
2022/12/28 21:33:55;;;;;;;0.20;0.10;;;10.30;99.90;;;;;;20973449;28;20928;-82
2022/12/28 21:44:01;;;;;;;0.20;0.10;;;10.60;99.90;;;;;;20984323;28;20398;-81
2022/12/28 21:54:06;;;;;;;0.20;0.10;;;11.30;99.90;;;;;;20987760;28;20869;-80
2022/12/28 22:14:34;;;;;;;1.20;1.20;;;13.80;99.90;;;;;;20987448;28;20509;-80
2022/12/28 22:24:40;;;;;;;0.20;0.10;;;13.90;99.90;;;;;;20989423;28;20421;-79
2022/12/28 22:34:44;;;;;;;0.20;0.10;;;13.40;99.90;;;;;;20953289;28;20472;-79
2022/12/28 22:44:49;;;;;;;0.20;0.10;;;12.80;99.90;;;;;;20986827;28;20475;-78
2022/12/28 22:54:53;;;;;;;0.20;0.10;;;12.50;99.90;;;;;;20986890;28;20413;-79
2022/12/28 23:04:58;;;;;;;0.20;0.10;;;11.90;99.90;;;;;;20987808;28;20404;-78
2022/12/28 23:15:18;;;;;;;0.20;0.10;;;11.50;99.90;;;;;;20967613;28;20410;-78
2022/12/28 23:35:47;;;;;;;0.20;0.10;;;12.30;99.90;;;;;;20966992;28;20414;-77
2022/12/28 23:45:52;;;;;;;0.20;0.20;;;12.80;99.90;;;;;;20965070;28;20464;-77
2022/12/28 23:55:58;;;;;;;0.20;0.10;;;12.80;99.90;;;;;;20982736;28;20467;-78
